Crowley, Colorado
Current Conditions -  °F | °C
As of 2:53 PM on Saturday 20 Dec 2014 (Local Time) from KLHX Reporting Station
Clear Clear  
Wind Chill: 44°   Ceiling: Unl
Heat Index: 46°   Visibility: 10mi
Dew Point: 26°   Wind: 5mph
Humidity: 46%   Direction: 150°SSE
Pressure: 29.94"   Gusts: NA
Location:  38.19°N, 103.86°W
Report Text: KLHX 202153Z AUTO 15004KT 10SM CLR 08/M03 A2994 RMK AO2 SLP144 T00781033
Loading
Personal Weather Stations






























Interactive Weather Map New forecast layout! Learn more

10-Day Weather Forecast

Advertisements
Track Severe Weather on mobile